Latest Weather Observations for Georgetown Airport

IDQ60801

Issued at 11:02 pm EST Tuesday 28 January 2020 (issued every 10 minutes, with the page automatically refreshed every 10 minutes)

About weather observations | Map of weather stations | Latest weather observations for QLD | Other Formats
Station Details ID: 030124 Name: GEORGETOWN AIRPORT Lat: -18.30 Lon: 143.53 Height: 301.77 m
Data from the previous 72 hours. | See also: Recent months at Georgetown Airport
Date/Time
EST
Temp
°C
App
Temp
°C
Dew
Point
°C
Rel
Hum
%
Delta-T
°C
Wind Press
QNH
hPa
Press
MSL
hPa
Rain since
9am
mm
Dir  Spd
km/h
Gust
km/h
Spd
kts
Gust
kts
28/11:00pm 24.3 26.5 23.3 94 0.7 ENE 17 24 9 13 1008.1 1005.8 32.6
28/10:30pm 24.4 28.1 23.2 93 0.8 ENE 9 17 5 9 1007.9 1005.6 32.4
28/10:00pm 24.3 27.2 23.1 93 0.8 ENE 13 19 7 10 1007.6 1005.3 32.4
28/09:30pm 24.3 26.9 23.3 94 0.7 NE 15 20 8 11 1007.6 1005.3 32.4
28/09:00pm 24.4 26.7 23.5 95 0.6 NE 17 20 9 11 1007.6 1005.3 32.2
28/08:30pm 24.7 28.2 24.2 97 0.3 NNE 13 20 7 11 1007.4 1005.1 32.0
28/08:17pm 24.7 27.7 24.0 96 0.5 NNE 15 22 8 12 1007.1 1004.9 32.0
28/08:00pm 24.7 27.9 24.4 98 0.2 NNE 15 19 8 10 1006.9 1004.7 32.0
28/07:30pm 24.7 27.1 24.2 97 0.3 NNE 19 28 10 15 1006.2 1004.0 31.8
28/07:21pm 24.6 27.5 24.4 99 0.1 NNE 17 24 9 13 1006.0 1003.8 31.8
28/07:00pm 24.5 27.7 24.3 99 0.1 NNE 15 24 8 13 1005.9 1003.7 31.4
28/06:30pm 24.1 27.8 23.9 99 0.1 NE 11 15 6 8 1005.5 1003.2 29.0
28/06:02pm 23.7 27.5 23.5 99 0.1 NE 9 17 5 9 1005.0 1002.7 28.0
28/06:00pm 23.8 27.7 23.6 99 0.1 NE 9 17 5 9 1005.0 1002.7 28.0
28/05:41pm 23.6 26.3 23.4 99 0.1 NE 15 22 8 12 1004.9 1002.6 25.8
28/05:30pm 23.8 25.2 23.6 99 0.1 NE 22 39 12 21 1005.0 1002.7 24.6
28/05:19pm 24.3 27.0 24.1 99 0.1 N 17 24 9 13 1004.8 1002.5 20.8
28/05:02pm 24.6 29.5 24.4 99 0.1 WNW 6 13 3 7 1004.2 1001.9 13.8
28/05:00pm 24.6 29.9 24.4 99 0.1 W 4 13 2 7 1004.1 1001.8 13.6
28/04:41pm 24.5 28.1 24.3 99 0.1 WSW 13 19 7 10 1003.6 1001.4 12.8
28/04:30pm 24.3 27.3 24.0 98 0.2 WNW 15 20 8 11 1003.6 1001.4 12.8
28/04:15pm 24.7 26.8 23.1 91 1.1 NW 17 32 9 17 1004.2 1001.9 10.4
28/04:00pm 26.7 33.2 25.1 91 1.1 CALM 0 0 0 0 1003.7 1001.5 8.6
28/03:30pm 27.0 31.9 24.3 85 1.9 SE 6 9 3 5 1003.6 1001.4 8.4
28/03:00pm 27.3 32.2 24.7 86 1.8 ESE 7 13 4 7 1003.5 1001.3 8.4
28/02:30pm 27.1 31.7 24.7 87 1.7 ENE 9 13 5 7 1003.6 1001.4 8.4
28/02:00pm 26.0 30.5 24.6 92 1.0 ENE 9 13 5 7 1004.6 1002.3 8.4
28/01:30pm 25.1 28.5 24.6 97 0.3 NE 15 20 8 11 1005.5 1003.2 8.4
28/01:29pm 25.0 28.3 24.5 97 0.3 NE 15 20 8 11 1005.5 1003.2 8.4
28/01:00pm 25.3 25.7 23.2 88 1.4 N 26 43 14 23 1005.8 1003.5 2.6
28/12:58pm 25.9 26.6 23.0 84 2.0 N 24 43 13 23 1005.8 1003.5 1.6
28/12:30pm 29.8 31.3 23.0 67 4.7 NE 20 32 11 17 1005.4 1003.1 0.0
28/12:00pm 29.5 31.2 23.4 69 4.2 NE 20 30 11 16 1005.9 1003.7 0.0
28/11:30am 28.8 29.5 23.0 71 4.0 NE 24 32 13 17 1006.3 1004.1 0.0
28/11:00am 28.7 29.9 23.8 75 3.4 NE 24 33 13 18 1006.5 1004.3 0.0
28/10:30am 28.2 28.6 23.8 77 3.1 NE 28 43 15 23 1006.8 1004.6 0.0
28/10:00am 27.9 29.1 23.9 79 2.8 ENE 24 30 13 16 1006.8 1004.6 0.0
28/09:30am 27.7 30.9 24.9 85 2.0 ENE 17 24 9 13 1006.7 1004.5 0.0
28/09:00am 26.3 29.3 24.0 87 1.6 ENE 15 20 8 11 1007.0 1004.8 9.6
28/08:30am 25.6 29.7 24.6 94 0.7 ENE 11 17 6 9 1006.9 1004.7 9.6
28/08:00am 25.1 29.1 24.4 96 0.5 E 11 17 6 9 1006.8 1004.6 9.6
28/07:45am 25.1 29.4 24.2 95 0.6 ENE 9 19 5 10 1006.8 1004.6 9.6
28/07:31am 24.9 29.4 24.0 95 0.6 ENE 7 9 4 5 1006.7 1004.5 9.4
28/07:30am 24.9 29.4 24.0 95 0.6 ENE 7 11 4 6 1006.7 1004.5 9.4
28/07:00am 25.0 29.5 24.0 94 0.7 ENE 7 11 4 6 1006.6 1004.4 8.6
28/06:30am 24.9 29.0 23.9 94 0.7 NE 9 11 5 6 1006.4 1004.2 8.4
28/06:00am 24.8 28.3 23.6 93 0.8 ENE 11 17 6 9 1005.8 1003.5 8.4
28/05:30am 24.7 28.5 23.5 93 0.8 ENE 9 11 5 6 1005.5 1003.2 8.2
28/05:00am 24.8 27.8 23.4 92 1.0 ENE 13 22 7 12 1005.5 1003.2 8.2
28/04:30am 24.6 29.8 23.6 94 0.7 NNE 2 9 1 5 1005.6 1003.3 8.2
28/04:00am 25.1 29.3 23.2 89 1.3 NE 6 9 3 5 1005.6 1003.3 7.8
28/03:30am 25.2 28.8 23.1 88 1.4 ENE 9 13 5 7 1005.4 1003.1 7.4
28/03:00am 25.2 28.4 23.1 88 1.4 ENE 11 15 6 8 1005.5 1003.2 7.4
28/02:30am 24.9 28.5 23.0 89 1.3 ENE 9 13 5 7 1005.9 1003.7 7.4
28/02:00am 24.8 28.4 23.0 90 1.2 E 9 13 5 7 1006.4 1004.2 7.4
28/01:30am 24.8 28.7 23.0 90 1.2 E 7 11 4 6 1006.9 1004.7 7.4
28/01:00am 24.9 28.5 23.1 90 1.2 ENE 9 13 5 7 1007.4 1005.1 7.4
28/12:30am 24.8 28.1 23.2 91 1.1 ENE 11 15 6 8 1007.6 1005.3 7.4
28/12:00am 24.7 28.8 23.3 92 1.0 ENE 7 9 4 5 1008.1 1005.8 7.4
 
Date/Time
EST
Temp
°C
App
Temp
°C
Dew
Point
°C
Rel
Hum
%
Delta-T
°C
Wind Press
QNH
hPa
Press
MSL
hPa
Rain since
9am
mm
Dir  Spd
km/h
Gust
km/h
Spd
kts
Gust
kts
27/11:30pm 24.8 29.2 23.8 94 0.7 ENE 7 9 4 5 1008.2 1005.9 7.4
27/11:00pm 24.8 29.3 23.9 95 0.6 ENE 7 11 4 6 1008.3 1006.0 7.4
27/10:30pm 24.7 30.5 24.0 96 0.5 CALM 0 0 0 0 1008.4 1006.1 7.4
27/10:00pm 24.8 29.4 24.1 96 0.5 NNE 7 9 4 5 1008.7 1006.4 7.4
27/09:30pm 24.9 29.0 24.0 95 0.6 NE 9 13 5 7 1008.3 1006.0 7.4
27/09:00pm 24.8 29.7 24.6 99 0.1 NNE 7 9 4 5 1008.2 1005.9 7.4
27/08:30pm 24.7 30.1 24.5 99 0.1 NE 4 7 2 4 1007.7 1005.4 7.4
27/08:00pm 24.6 30.2 24.3 98 0.2 ENE 2 6 1 3 1007.8 1005.5 7.4
27/07:30pm 24.4 29.8 23.9 97 0.3 ENE 2 6 1 3 1007.6 1005.3 7.4
27/07:00pm 24.3 28.9 23.8 97 0.3 ENE 6 7 3 4 1007.4 1005.1 7.4
27/06:30pm 24.3 30.1 24.0 98 0.2 CALM 0 0 0 0 1006.8 1004.6 7.4
27/06:00pm 24.1 28.8 23.4 96 0.5 E 4 7 2 4 1006.1 1003.9 7.4
27/05:30pm 24.0 28.0 23.1 95 0.6 N 7 11 4 6 1005.6 1003.3 7.2
27/05:00pm 24.0 27.6 23.1 95 0.6 NNW 9 17 5 9 1005.8 1003.5 6.4
27/04:30pm 24.3 28.3 23.8 97 0.3 NNE 9 15 5 8 1006.3 1004.1 5.4
27/04:00pm 24.2 26.7 23.2 94 0.7 NE 15 19 8 10 1006.0 1003.8 5.2
27/03:30pm 25.3 28.7 22.0 82 2.2 ENE 7 13 4 7 1006.7 1004.5 5.0
27/03:00pm 25.2 28.4 21.7 81 2.4 SW 7 9 4 5 1006.7 1004.5 5.0
27/02:30pm 24.5 25.5 21.0 81 2.3 W 17 26 9 14 1006.8 1004.6 5.0
27/02:01pm 26.3 27.0 22.2 78 2.8 NW 22 48 12 26 1007.1 1004.9 5.0
27/02:00pm 27.0 27.9 22.0 74 3.4 NNW 20 48 11 26 1007.1 1004.9 5.0
27/01:30pm 30.9 34.9 23.8 66 5.0 NE 9 15 5 8 1006.9 1004.7 5.0
27/01:00pm 30.2 33.5 23.9 69 4.4 NNE 13 22 7 12 1007.1 1004.9 5.0
27/12:30pm 29.7 32.4 23.4 69 4.4 NNE 15 22 8 12 1007.7 1005.4 5.0
27/12:00pm 29.3 33.5 25.3 79 2.8 ENE 13 20 7 11 1008.2 1005.9 5.0
27/11:30am 28.2 31.7 24.8 82 2.4 ENE 15 20 8 11 1008.8 1006.5 5.0
27/11:00am 28.5 31.7 24.9 81 2.5 ENE 17 24 9 13 1009.1 1006.9 5.0
27/10:30am 28.1 32.4 25.5 86 1.8 NE 13 19 7 10 1009.2 1007.0 5.0
27/10:00am 26.5 31.6 25.5 94 0.7 NE 9 11 5 6 1009.4 1007.2 5.0
27/09:58am 26.4 31.5 25.5 95 0.6 NE 9 13 5 7 1009.5 1007.3 5.0
27/09:34am 26.3 29.6 24.5 90 1.3 NNE 15 20 8 11 1009.8 1007.6 1.0
27/09:30am 26.9 30.2 24.5 87 1.7 NNE 15 20 8 11 1009.7 1007.5 0.0
27/09:00am 27.4 31.3 24.8 86 1.8 NE 13 19 7 10 1009.5 1007.3 2.0
27/08:30am 26.8 30.5 24.5 87 1.6 NE 13 17 7 9 1009.9 1007.7 2.0
27/08:27am 26.8 30.4 24.3 86 1.7 NE 13 17 7 9 1009.8 1007.6 2.0
27/08:00am 26.5 30.8 24.9 91 1.1 NE 11 13 6 7 1009.9 1007.7 2.0
27/07:52am 26.3 30.7 25.1 93 0.8 ENE 11 15 6 8 1009.8 1007.6 2.0
27/07:30am 25.9 30.8 25.2 96 0.5 ENE 9 11 5 6 1009.8 1007.6 2.0
27/07:00am 25.9 31.6 25.6 98 0.2 ENE 6 9 3 5 1009.3 1007.1 1.8
27/06:30am 25.8 31.4 25.5 98 0.2 N 6 13 3 7 1009.1 1006.9 1.8
27/06:29am 25.8 31.2 25.5 98 0.2 N 7 15 4 8 1009.0 1006.8 1.8
27/06:11am 25.9 32.2 25.4 97 0.4 ENE 2 7 1 4 1008.8 1006.5 1.6
27/06:00am 25.8 32.3 25.1 96 0.5 CALM 0 0 0 0 1008.6 1006.3 0.2
27/05:30am 25.7 32.2 25.0 96 0.5 CALM 0 0 0 0 1008.4 1006.1 0.2
27/05:26am 25.7 32.0 24.8 95 0.6 CALM 0 0 0 0 1008.4 1006.1 0.2
27/05:00am 25.8 32.1 24.8 94 0.7 CALM 0 0 0 0 1008.2 1005.9 0.2
27/04:30am 25.6 31.9 24.7 95 0.6 CALM 0 0 0 0 1007.8 1005.5 0.2
27/04:22am 25.6 31.9 24.7 95 0.6 CALM 0 0 0 0 1007.7 1005.4 0.2
27/04:00am 25.5 30.6 24.6 95 0.6 ENE 6 7 3 4 1007.7 1005.4 0.2
27/03:30am 25.6 31.8 24.6 94 0.7 CALM 0 0 0 0 1007.7 1005.4 0.2
27/03:00am 25.7 31.8 24.5 93 0.8 CALM 0 6 0 3 1007.9 1005.6 0.2
27/02:30am 26.2 31.7 24.6 91 1.1 NNE 4 7 2 4 1008.4 1006.1 0.2
27/02:00am 26.6 31.5 25.2 92 1.0 NNE 9 11 5 6 1008.7 1006.4 0.0
27/01:30am 26.5 32.3 25.8 96 0.5 NNE 6 7 3 4 1009.0 1006.8 0.0
27/01:00am 26.2 32.8 25.2 94 0.7 CALM 0 0 0 0 1009.2 1007.0 0.0
27/12:30am 26.3 33.0 25.4 95 0.6 CALM 0 6 0 3 1009.5 1007.3 0.0
27/12:00am 26.4 31.8 25.2 93 0.8 ENE 6 9 3 5 1010.0 1007.8 0.0
 
Date/Time
EST
Temp
°C
App
Temp
°C
Dew
Point
°C
Rel
Hum
%
Delta-T
°C
Wind Press
QNH
hPa
Press
MSL
hPa
Rain since
9am
mm
Dir  Spd
km/h
Gust
km/h
Spd
kts
Gust
kts
26/11:30pm 26.4 32.9 25.0 92 1.0 CALM 0 0 0 0 1010.0 1007.8 0.0
26/11:00pm 26.6 32.7 25.0 91 1.1 E 2 7 1 4 1010.2 1008.0 0.0
26/10:30pm 26.7 32.3 24.9 90 1.3 SSW 4 9 2 5 1010.0 1007.8 0.0
26/10:00pm 27.0 32.6 24.8 88 1.5 S 4 7 2 4 1009.8 1007.6 0.0
26/09:30pm 27.2 33.5 24.7 86 1.8 CALM 0 0 0 0 1009.5 1007.3 0.0
26/09:00pm 27.9 32.6 23.9 79 2.8 WNW 6 7 3 4 1009.6 1007.4 0.0
26/08:30pm 27.9 33.3 23.9 79 2.8 WNW 2 6 1 3 1009.3 1007.1 0.0
26/08:00pm 27.7 31.9 23.5 78 2.9 W 7 13 4 7 1008.9 1006.7 0.0
26/07:30pm 27.7 32.0 23.7 79 2.8 WNW 7 11 4 6 1008.3 1006.0 0.0
26/07:00pm 27.8 30.8 23.4 77 3.1 WNW 13 17 7 9 1007.9 1005.6 0.0
26/06:30pm 27.9 30.4 23.1 75 3.3 WNW 15 20 8 11 1007.0 1004.8 0.0
26/06:00pm 28.2 29.2 22.9 73 3.7 WNW 22 32 12 17 1006.9 1004.7 0.0
26/05:30pm 31.4 33.8 23.0 61 5.8 WNW 15 20 8 11 1006.7 1004.5 0.0
26/05:00pm 32.0 34.6 22.7 58 6.5 NW 13 19 7 10 1006.4 1004.2 0.0
26/04:30pm 32.5 36.3 23.4 58 6.4 NW 9 15 5 8 1006.3 1004.1 0.0
26/04:00pm 32.2 35.2 22.6 57 6.7 NW 11 15 6 8 1006.3 1004.1 0.0
26/03:30pm 32.4 35.4 23.4 59 6.3 NW 13 19 7 10 1006.7 1004.5 0.0
26/03:00pm 32.4 35.3 23.1 58 6.5 WNW 13 19 7 10 1007.2 1005.0 0.0
26/02:30pm 32.3 35.3 23.3 59 6.3 NNW 13 20 7 11 1007.6 1005.3 0.0
26/02:00pm 32.0 35.2 23.0 59 6.3 NNW 11 19 6 10 1007.8 1005.5 0.0
26/01:30pm 31.5 34.8 22.5 59 6.2 NNW 9 15 5 8 1008.3 1006.0 0.0
26/01:00pm 31.7 34.4 23.5 62 5.7 WNW 15 22 8 12 1009.2 1007.0 0.0
26/12:30pm 31.2 34.7 23.6 64 5.3 NNW 11 17 6 9 1009.8 1007.6 0.0
26/12:00pm 31.2 34.3 23.6 64 5.3 NW 13 17 7 9 1010.3 1008.1 0.0
26/11:30am 30.4 33.6 23.1 65 5.1 NW 11 17 6 9 1010.7 1008.5 0.0
26/11:00am 29.8 33.8 23.7 70 4.3 NW 9 15 5 8 1011.1 1008.8 0.0
26/10:30am 29.4 33.5 24.0 72 3.8 NW 9 15 5 8 1011.4 1009.1 0.0
26/10:00am 28.5 32.7 24.7 80 2.7 N 11 15 6 8 1011.4 1009.1 0.0
26/09:41am 28.1 32.4 24.3 80 2.7 N 9 20 5 11 1011.4 1009.1 0.0
26/09:30am 27.8 31.7 24.2 81 2.5 N 11 15 6 8 1011.5 1009.2 0.0
26/09:00am 27.3 31.0 24.6 85 1.9 NNW 13 17 7 9 1011.6 1009.3 0.2
26/08:30am 26.7 31.1 24.4 87 1.6 N 9 13 5 7 1011.7 1009.4 0.2
26/08:17am 26.5 30.8 24.3 88 1.5 N 9 13 5 7 1011.7 1009.4 0.2
26/08:00am 26.4 30.6 24.1 87 1.6 N 9 15 5 8 1011.5 1009.2 0.2
26/07:30am 26.2 30.5 24.2 89 1.4 NNE 9 15 5 8 1011.1 1008.8 0.2
26/07:00am 25.5 30.0 23.9 91 1.1 NNE 7 9 4 5 1010.5 1008.3 0.2
26/06:30am 25.2 29.8 23.8 92 1.0 NE 6 7 3 4 1010.0 1007.8 0.2
26/06:00am 25.1 29.5 23.5 91 1.1 NE 6 7 3 4 1009.8 1007.6 0.2
26/05:30am 25.1 29.6 23.7 92 1.0 NE 6 9 3 5 1009.7 1007.5 0.2
26/05:00am 25.2 30.4 23.6 91 1.1 N 2 6 1 3 1009.9 1007.7 0.2
26/04:30am 25.3 30.9 23.5 90 1.2 CALM 0 0 0 0 1009.9 1007.7 0.2
26/04:00am 25.5 31.2 23.7 90 1.2 CALM 0 0 0 0 1009.7 1007.5 0.2
26/03:30am 25.4 29.9 23.6 90 1.2 N 6 9 3 5 1009.4 1007.2 0.2
26/03:00am 25.3 30.6 23.7 91 1.1 N 2 6 1 3 1009.1 1006.9 0.2
26/02:30am 25.3 31.3 24.3 94 0.7 CALM 0 0 0 0 1009.0 1006.8 0.2
26/02:00am 25.5 31.3 23.9 91 1.1 CALM 0 0 0 0 1009.1 1006.9 0.2
26/01:30am 25.7 31.7 24.3 92 1.0 CALM 0 6 0 3 1009.5 1007.3 0.2
26/01:00am 25.6 31.4 24.0 91 1.1 CALM 0 0 0 0 1010.2 1008.0 0.2
26/12:30am 25.8 31.8 24.2 91 1.1 CALM 0 0 0 0 1010.7 1008.5 0.2
26/12:00am 25.7 31.7 24.3 92 1.0 CALM 0 0 0 0 1011.4 1009.1 0.2
 
Date/Time
EST
Temp
°C
App
Temp
°C
Dew
Point
°C
Rel
Hum
%
Delta-T
°C
Wind Press
QNH
hPa
Press
MSL
hPa
Rain since
9am
mm
Dir  Spd
km/h
Gust
km/h
Spd
kts
Gust
kts
25/11:30pm 25.7 31.6 24.1 91 1.1 CALM 0 0 0 0 1011.2 1008.9 0.2

Other formats

Comma delimited format used in spreadsheet applications
http://www.bom.gov.au/fwo/IDQ60801/IDQ60801.94274.axf

JavaScript Object Notation format (JSON) in row-major order
http://www.bom.gov.au/fwo/IDQ60801/IDQ60801.94274.json

Data quality

Most of these data are generated automatically and are frequently updated. Quality checks on data are not normally performed. It is possible for incorrect values to appear. Refer to information at About Latest Weather Observations and please check the disclaimer before using these data.